Time;durP1;ratioP1;P1;durP2;ratioP2;P2;SDS_P1;SDS_P2;PMS_P1;PMS_P2;Temp;Humidity;BMP_temperature;BMP_pressure;BME280_temperature;BME280_humidity;BME280_pressure;Samples;Min_cycle;Max_cycle;Signal;HPM_P1;HPM_P2
2024/01/16 00:01:07;;;;;;;;;;;;;;;-2.66;100.00;100325.09;4897882;29;19928;-72
2024/01/16 00:03:32;;;;;;;;;;;;;;;-2.70;100.00;100327.13;4898201;29;20407;-73
2024/01/16 00:05:57;;;;;;;;;;;;;;;-2.68;100.00;100325.22;4898196;29;20368;-72
2024/01/16 00:08:23;;;;;;;;;;;;;;;-2.67;100.00;100326.91;4898583;29;20018;-73
2024/01/16 00:10:48;;;;;;;;;;;;;;;-2.69;100.00;100328.81;4897310;29;19965;-72
2024/01/16 00:13:13;;;;;;;;;;;;;;;-2.71;100.00;100330.72;4899330;29;20454;-73
2024/01/16 00:15:41;;;;;;;;;;;;;;;-2.72;100.00;100336.09;4897204;29;20366;-73
2024/01/16 00:18:06;;;;;;;;;;;;;;;-2.72;100.00;100333.47;4897961;29;19931;-73
2024/01/16 00:20:31;;;;;;;;;;;;;;;-2.68;100.00;100333.13;4898740;29;20295;-73
2024/01/16 00:22:56;;;;;;;;;;;;;;;-2.74;100.00;100330.97;4897644;29;19935;-73
2024/01/16 00:25:22;;;;;;;;;;;;;;;-2.79;100.00;100338.41;4899877;29;19924;-73
2024/01/16 00:27:48;;;;;;;;;;;;;;;-2.82;100.00;100336.00;4898544;29;19927;-73
2024/01/16 00:30:13;;;;;;;;;;;;;;;-2.76;100.00;100341.66;4895009;29;19928;-73
2024/01/16 00:32:41;;;;;;;;;;;;;;;-2.71;100.00;100337.78;4896331;29;19930;-73
2024/01/16 00:35:06;;;;;;;;;;;;;;;-2.74;100.00;100342.34;4897620;29;19928;-73
2024/01/16 00:37:32;;;;;;;;;;;;;;;-2.79;100.00;100348.94;4896998;29;19939;-73
2024/01/16 00:39:57;;;;;;;;;;;;;;;-2.78;100.00;100342.72;4897623;29;20394;-72
2024/01/16 00:42:22;;;;;;;;;;;;;;;-2.82;100.00;100342.13;4898388;29;20436;-72
2024/01/16 00:44:47;;;;;;;;;;;;;;;-2.81;100.00;100342.94;4896478;29;20411;-72
2024/01/16 00:47:13;;;;;;;;;;;;;;;-2.78;100.00;100361.16;4897797;29;19924;-73
2024/01/16 00:49:38;;;;;;;;;;;;;;;-2.81;100.00;100350.84;4897446;29;20018;-73
2024/01/16 00:52:03;;;;;;;;;;;;;;;-2.87;100.00;100357.47;4896914;29;19966;-73
2024/01/16 00:54:31;;;;;;;;;;;;;;;-2.87;100.00;100354.81;4897171;29;19970;-73
2024/01/16 00:56:59;;;;;;;;;;;;;;;-2.88;100.00;100355.78;4900689;29;19947;-73
2024/01/16 00:59:25;;;;;;;;;;;;;;;-2.94;100.00;100358.91;4897246;29;19990;-73
2024/01/16 01:01:50;;;;;;;;;;;;;;;-2.96;100.00;100366.91;4897285;29;20376;-73
2024/01/16 01:04:15;;;;;;;;;;;;;;;-2.95;100.00;100376.50;4897718;29;19971;-73
2024/01/16 01:06:40;;;;;;;;;;;;;;;-2.91;100.00;100370.03;4897257;29;20295;-73
2024/01/16 01:09:11;;;;;;;;;;;;;;;-2.90;100.00;100384.88;4897254;29;19946;-73
2024/01/16 01:11:36;;;;;;;;;;;;;;;-2.87;100.00;100386.44;4897800;29;20406;-73
2024/01/16 01:14:02;;;;;;;;;;;;;;;-2.89;100.00;100385.72;4897168;29;19963;-73
2024/01/16 01:16:28;;;;;;;;;;;;;;;-2.87;100.00;100388.25;4897176;29;19950;-73
2024/01/16 01:18:53;;;;;;;;;;;;;;;-2.88;100.00;100392.66;4896988;29;19924;-73
2024/01/16 01:21:19;;;;;;;;;;;;;;;-2.90;100.00;100394.56;4897345;29;20381;-73
2024/01/16 01:23:44;;;;;;;;;;;;;;;-2.87;100.00;100391.69;4897703;29;20438;-73
2024/01/16 01:26:09;;;;;;;;;;;;;;;-2.80;100.00;100392.03;4895715;29;19930;-73
2024/01/16 01:28:34;;;;;;;;;;;;;;;-2.75;100.00;100393.38;4898003;29;19923;-73
2024/01/16 01:31:00;;;;;;;;;;;;;;;-2.70;100.00;100390.38;4897020;29;19923;-73
2024/01/16 01:33:25;;;;;;;;;;;;;;;-2.72;100.00;100392.28;4880558;29;20006;-73
2024/01/16 01:35:50;;;;;;;;;;;;;;;-2.71;100.00;100398.38;4878206;29;20388;-73
2024/01/16 01:38:15;;;;;;;;;;;;;;;-2.67;100.00;100391.91;4882582;29;19930;-73
2024/01/16 01:40:43;;;;;;;;;;;;;;;-2.70;100.00;100389.53;4878440;29;19923;-73
2024/01/16 01:43:21;;;;;;;;;;;;;;;-2.67;100.00;100394.56;4878344;29;20010;-73
2024/01/16 01:45:55;;;;;;;;;;;;;;;-2.57;100.00;100399.94;4868328;29;20029;-73
2024/01/16 01:48:20;;;;;;;;;;;;;;;-2.54;100.00;100399.69;4874074;29;20373;-73
2024/01/16 01:50:46;;;;;;;;;;;;;;;-2.50;100.00;100401.13;4897354;29;19912;-73
2024/01/16 01:53:11;;;;;;;;;;;;;;;-2.48;100.00;100404.47;4901238;29;19921;-72
2024/01/16 01:55:37;;;;;;;;;;;;;;;-2.43;100.00;100394.38;4863510;29;19967;-73
2024/01/16 01:58:04;;;;;;;;;;;;;;;-2.46;100.00;100399.88;4891660;29;19924;-73
2024/01/16 02:00:29;;;;;;;;;;;;;;;-2.47;100.00;100393.78;4864818;29;20031;-73
2024/01/16 02:02:54;;;;;;;;;;;;;;;-2.50;100.00;100396.69;4877789;29;20023;-73
2024/01/16 02:05:19;;;;;;;;;;;;;;;-2.55;100.00;100401.47;4882511;29;19955;-73
2024/01/16 02:07:45;;;;;;;;;;;;;;;-2.57;100.00;100405.19;4861978;29;19974;-73
2024/01/16 02:10:10;;;;;;;;;;;;;;;-2.59;100.00;100408.78;4883169;29;19924;-73
2024/01/16 02:12:35;;;;;;;;;;;;;;;-2.61;100.00;100404.63;4873436;29;20292;-73
2024/01/16 02:15:00;;;;;;;;;;;;;;;-2.51;100.00;100410.00;4878256;29;20400;-73
2024/01/16 02:17:26;;;;;;;;;;;;;;;-2.46;100.00;100407.78;4897562;29;19931;-73
2024/01/16 02:19:51;;;;;;;;;;;;;;;-2.53;100.00;100411.91;4884741;29;19920;-74
2024/01/16 02:22:18;;;;;;;;;;;;;;;-2.65;100.00;100397.91;4883081;29;19924;-73
2024/01/16 02:24:43;;;;;;;;;;;;;;;-2.68;100.00;100404.25;4864138;29;20681;-73
2024/01/16 02:27:08;;;;;;;;;;;;;;;-2.65;100.00;100404.03;4865297;29;19930;-73
2024/01/16 02:29:34;;;;;;;;;;;;;;;-2.70;100.00;100406.19;4880224;29;19924;-73
2024/01/16 02:32:00;;;;;;;;;;;;;;;-2.78;100.00;100408.56;4877368;29;19979;-74
2024/01/16 02:34:25;;;;;;;;;;;;;;;-2.78;100.00;100404.16;4873504;29;19986;-72
2024/01/16 02:36:50;;;;;;;;;;;;;;;-2.76;100.00;100412.78;4880646;29;19940;-73
2024/01/16 02:39:16;;;;;;;;;;;;;;;-2.77;100.00;100415.53;4877286;29;19931;-73
2024/01/16 02:41:41;;;;;;;;;;;;;;;-2.72;100.00;100417.78;4879281;29;19931;-73
2024/01/16 02:44:06;;;;;;;;;;;;;;;-2.77;100.00;100423.41;4871609;29;19924;-73
2024/01/16 02:46:32;;;;;;;;;;;;;;;-2.82;100.00;100413.25;4877083;29;19970;-73
2024/01/16 02:48:57;;;;;;;;;;;;;;;-2.81;100.00;100414.94;4896999;29;19931;-73
2024/01/16 02:51:23;;;;;;;;;;;;;;;-2.74;100.00;100410.00;4901052;29;20406;-73
2024/01/16 02:53:51;;;;;;;;;;;;;;;-2.70;100.00;100415.88;4883607;29;19934;-73
2024/01/16 02:56:16;;;;;;;;;;;;;;;-2.70;100.00;100408.81;4878225;29;19978;-73
2024/01/16 02:58:41;;;;;;;;;;;;;;;-2.72;100.00;100409.88;4877959;29;19963;-73
2024/01/16 03:01:09;;;;;;;;;;;;;;;-2.71;100.00;100404.50;4884398;29;19935;-72
2024/01/16 03:03:35;;;;;;;;;;;;;;;-2.68;100.00;100406.03;4879163;29;19994;-73
2024/01/16 03:06:00;;;;;;;;;;;;;;;-2.60;100.00;100406.28;4888066;29;20403;-73
2024/01/16 03:08:25;;;;;;;;;;;;;;;-2.56;100.00;100399.81;4880540;29;20252;-73
2024/01/16 03:10:50;;;;;;;;;;;;;;;-2.50;100.00;100406.41;4881329;29;19924;-73
2024/01/16 03:13:16;;;;;;;;;;;;;;;-2.48;100.00;100409.75;4882840;29;19924;-73
2024/01/16 03:15:41;;;;;;;;;;;;;;;-2.39;100.00;100400.25;4896669;29;20009;-72
2024/01/16 03:18:07;;;;;;;;;;;;;;;-2.45;100.00;100398.94;4895340;29;19932;-73
2024/01/16 03:20:32;;;;;;;;;;;;;;;-2.41;100.00;100405.63;4888830;29;20010;-73
2024/01/16 03:22:57;;;;;;;;;;;;;;;-2.37;100.00;100401.81;4880776;29;19967;-73
2024/01/16 03:25:23;;;;;;;;;;;;;;;-2.40;100.00;100404.69;4879400;29;19924;-73
2024/01/16 03:27:48;;;;;;;;;;;;;;;-2.41;100.00;100405.63;4878955;29;19928;-72
2024/01/16 03:30:17;;;;;;;;;;;;;;;-2.37;100.00;100407.06;4878999;29;20373;-73
2024/01/16 03:32:42;;;;;;;;;;;;;;;-2.38;100.00;100400.13;4877469;29;20006;-73
2024/01/16 03:35:07;;;;;;;;;;;;;;;-2.46;100.00;100394.63;4878881;29;20010;-73
2024/01/16 03:37:32;;;;;;;;;;;;;;;-2.29;100.00;100393.28;4877219;29;19962;-73
2024/01/16 03:40:01;;;;;;;;;;;;;;;-2.36;100.00;100392.06;4875706;29;19927;-72
2024/01/16 03:42:26;;;;;;;;;;;;;;;-2.25;100.00;100385.94;4875654;29;20047;-72
2024/01/16 03:44:51;;;;;;;;;;;;;;;-2.29;100.00;100386.19;4875957;29;20049;-72
2024/01/16 03:47:16;;;;;;;;;;;;;;;-2.29;100.00;100377.44;4876476;29;19927;-73
2024/01/16 03:49:42;;;;;;;;;;;;;;;-2.24;100.00;100374.44;4877646;29;19919;-73
2024/01/16 03:52:08;;;;;;;;;;;;;;;-2.21;100.00;100368.91;4876912;29;19923;-73
2024/01/16 03:54:33;;;;;;;;;;;;;;;-2.22;100.00;100377.78;4875901;29;20424;-73
2024/01/16 03:56:58;;;;;;;;;;;;;;;-2.20;100.00;100387.22;4877865;29;20034;-73
2024/01/16 03:59:26;;;;;;;;;;;;;;;-2.23;100.00;100381.38;4877331;29;20007;-72
2024/01/16 04:01:52;;;;;;;;;;;;;;;-2.13;100.00;100393.69;4878978;29;20372;-72
2024/01/16 04:04:17;;;;;;;;;;;;;;;-2.21;100.00;100390.00;4881330;29;19920;-72
2024/01/16 04:06:42;;;;;;;;;;;;;;;-2.21;100.00;100395.28;4880339;29;19930;-72
2024/01/16 04:09:08;;;;;;;;;;;;;;;-2.24;100.00;100396.38;4879486;29;19931;-72
2024/01/16 04:11:33;;;;;;;;;;;;;;;-2.23;100.00;100397.19;4881061;29;19926;-72
2024/01/16 04:13:58;;;;;;;;;;;;;;;-2.21;100.00;100401.41;4879910;29;19920;-72
2024/01/16 04:16:27;;;;;;;;;;;;;;;-2.20;100.00;100396.94;4879858;29;20261;-72
2024/01/16 04:18:52;;;;;;;;;;;;;;;-2.21;100.00;100390.00;4881326;29;19922;-72
2024/01/16 04:21:17;;;;;;;;;;;;;;;-2.17;100.00;100401.97;4880133;29;19979;-73
2024/01/16 04:23:42;;;;;;;;;;;;;;;-2.16;100.00;100393.13;4879833;29;19967;-72
2024/01/16 04:26:07;;;;;;;;;;;;;;;-2.18;100.00;100392.41;4880765;29;20329;-72
2024/01/16 04:28:33;;;;;;;;;;;;;;;-2.17;100.00;100396.72;4880794;29;20345;-72
2024/01/16 04:30:58;;;;;;;;;;;;;;;-2.14;100.00;100385.91;4880132;29;19959;-72
2024/01/16 04:33:23;;;;;;;;;;;;;;;-2.15;100.00;100381.59;4879905;29;19932;-72
2024/01/16 04:35:48;;;;;;;;;;;;;;;-2.18;100.00;100384.50;4880518;29;20543;-72
2024/01/16 04:38:14;;;;;;;;;;;;;;;-2.19;100.00;100393.34;4879818;29;20274;-72
2024/01/16 04:40:39;;;;;;;;;;;;;;;-2.21;100.00;100392.66;4880217;29;20393;-72
2024/01/16 04:43:05;;;;;;;;;;;;;;;-2.18;100.00;100392.41;4879478;29;20349;-72
2024/01/16 04:45:30;;;;;;;;;;;;;;;-2.14;100.00;100380.63;4879115;29;19939;-72
2024/01/16 04:47:55;;;;;;;;;;;;;;;-2.13;100.00;100403.41;4880527;29;20317;-72
2024/01/16 04:50:20;;;;;;;;;;;;;;;-2.14;100.00;100401.75;4880115;29;20329;-72
2024/01/16 04:52:46;;;;;;;;;;;;;;;-2.10;100.00;100392.59;4880538;29;20288;-77
2024/01/16 04:55:14;;;;;;;;;;;;;;;-2.11;100.00;100396.19;4880518;29;19951;-73
2024/01/16 04:57:39;;;;;;;;;;;;;;;-2.10;100.00;100389.94;4879756;29;19934;-72
2024/01/16 05:00:06;;;;;;;;;;;;;;;-2.07;100.00;100384.44;4880120;29;19924;-72
2024/01/16 05:02:35;;;;;;;;;;;;;;;-2.08;100.00;100395.13;4879673;29;19924;-73
2024/01/16 05:05:05;;;;;;;;;;;;;;;-2.12;100.00;100394.53;4880403;29;20063;-74
2024/01/16 05:07:30;;;;;;;;;;;;;;;-2.07;100.00;100397.63;4878674;29;20377;-74
2024/01/16 05:09:55;;;;;;;;;;;;;;;-2.07;100.00;100392.34;4890132;23;19928;-75
2024/01/16 05:12:22;;;;;;;;;;;;;;;-2.06;100.00;100401.94;4896924;29;19930;-74
2024/01/16 05:14:47;;;;;;;;;;;;;;;-2.05;100.00;100382.50;4898219;29;19927;-73
2024/01/16 05:17:12;;;;;;;;;;;;;;;-2.00;100.00;100380.34;4897708;29;19929;-76
2024/01/16 05:19:38;;;;;;;;;;;;;;;-1.99;100.00;100386.44;4898302;29;19982;-75
2024/01/16 05:22:03;;;;;;;;;;;;;;;-1.99;100.00;100374.09;4898922;29;19923;-75
2024/01/16 05:24:28;;;;;;;;;;;;;;;-1.98;100.00;100364.38;4898961;29;19927;-75
2024/01/16 05:26:54;;;;;;;;;;;;;;;-1.92;100.00;100378.84;4898844;29;19930;-75
2024/01/16 05:29:19;;;;;;;;;;;;;;;-1.96;100.00;100373.00;4899226;29;19924;-75
2024/01/16 05:31:44;;;;;;;;;;;;;;;-1.99;100.00;100367.97;4898568;29;19927;-75
2024/01/16 05:34:10;;;;;;;;;;;;;;;-2.04;100.00;100371.00;4900506;29;19971;-75
2024/01/16 05:36:35;;;;;;;;;;;;;;;-2.01;100.00;100360.19;4901561;29;20303;-74
2024/01/16 05:39:00;;;;;;;;;;;;;;;-2.03;100.00;100356.84;4907432;29;19920;-75
2024/01/16 05:41:26;;;;;;;;;;;;;;;-1.99;100.00;100357.41;4916863;29;19927;-75
2024/01/16 05:43:51;;;;;;;;;;;;;;;-1.95;100.00;100360.66;4903553;29;20292;-75
2024/01/16 08:07:50;;;;;;;;;;;;;;;-2.10;100.00;100387.31;5213456;23;19931;-73
2024/01/16 10:15:39;;;;;;;;;;;;;;;-1.03;100.00;100396.03;4899890;29;19931;-75
2024/01/16 10:18:30;;;;;;;;;;;;;;;-1.10;100.00;100386.00;4887376;29;19975;-75
2024/01/16 10:21:16;;;;;;;;;;;;;;;-1.11;100.00;100388.78;4872871;29;19983;-76
2024/01/16 10:24:03;;;;;;;;;;;;;;;-1.07;100.00;100391.03;4902349;29;19924;-76
2024/01/16 10:26:38;;;;;;;;;;;;;;;-1.04;100.00;100391.72;4892773;29;20368;-76
2024/01/16 10:29:28;;;;;;;;;;;;;;;-0.93;100.00;100389.00;4916339;29;19924;-76
2024/01/16 10:32:08;;;;;;;;;;;;;;;-0.79;100.00;100387.78;4912939;29;19923;-76
2024/01/16 10:38:06;;;;;;;;;;;;;;;-0.73;100.00;100378.50;4893028;29;19934;-77
2024/01/16 10:40:31;;;;;;;;;;;;;;;-0.69;100.00;100379.88;4898878;29;20395;-77
2024/01/16 10:43:18;;;;;;;;;;;;;;;-0.63;100.00;100381.97;4898224;29;19927;-77
2024/01/16 10:46:08;;;;;;;;;;;;;;;-0.59;100.00;100369.31;4900256;29;20379;-77
2024/01/16 10:49:05;;;;;;;;;;;;;;;-0.52;100.00;100373.09;5004799;23;19931;-77
2024/01/16 10:51:39;;;;;;;;;;;;;;;-0.58;100.00;100371.84;4901595;29;19931;-77
2024/01/16 11:03:59;;;;;;;;;;;;;;;-0.14;99.23;100382.06;4898860;29;20457;-78
2024/01/16 11:09:29;;;;;;;;;;;;;;;-0.47;100.00;100379.66;4897934;29;19931;-77
2024/01/16 11:12:17;;;;;;;;;;;;;;;-0.33;100.00;100373.13;4852392;29;19930;-76
2024/01/16 11:18:06;;;;;;;;;;;;;;;-0.08;99.14;100376.19;4880042;29;20341;-77
2024/01/16 11:29:05;;;;;;;;;;;;;;;0.47;94.14;100376.56;4923476;23;19931;-77
2024/01/16 11:31:43;;;;;;;;;;;;;;;0.13;92.71;100383.16;4842350;29;20452;-77
2024/01/16 11:34:30;;;;;;;;;;;;;;;-0.04;94.87;100376.78;4898856;29;19952;-77
2024/01/16 11:36:56;;;;;;;;;;;;;;;0.02;94.29;100372.72;4895963;29;19982;-78
2024/01/16 11:39:22;;;;;;;;;;;;;;;-0.09;94.69;100366.56;4908161;29;19955;-78
2024/01/16 11:42:08;;;;;;;;;;;;;;;-0.22;96.74;100363.38;4899695;29;19930;-77
2024/01/16 11:45:07;;;;;;;;;;;;;;;0.36;94.99;100353.72;4900327;29;19923;-78
2024/01/16 11:50:38;;;;;;;;;;;;;;;0.17;92.85;100336.91;4901089;29;19979;-78
2024/01/16 11:53:10;;;;;;;;;;;;;;;0.86;91.27;100329.59;4884019;29;19924;-78
2024/01/16 11:55:54;;;;;;;;;;;;;;;0.90;88.63;100328.31;5044280;23;19935;-79
2024/01/16 11:58:57;;;;;;;;;;;;;;;0.73;90.00;100337.84;4899050;29;19934;-78
2024/01/16 12:04:27;;;;;;;;;;;;;;;1.27;88.74;100329.22;4853581;29;19987;-79
2024/01/16 12:07:14;;;;;;;;;;;;;;;2.42;82.84;100326.72;4900284;29;20078;-78
2024/01/16 12:13:03;;;;;;;;;;;;;;;3.26;75.78;100325.25;4901001;29;19979;-78
2024/01/16 12:15:41;;;;;;;;;;;;;;;4.32;71.90;100330.84;4900916;29;19923;-79
2024/01/16 12:26:59;;;;;;;;;;;;;;;4.59;66.67;100334.09;5358418;23;19928;-78
2024/01/16 12:41:42;;;;;;;;;;;;;;;3.80;70.10;100311.53;4965936;23;19979;-79
2024/01/16 12:44:10;;;;;;;;;;;;;;;4.19;68.33;100302.03;4884635;29;19934;-79
2024/01/16 12:46:35;;;;;;;;;;;;;;;3.86;68.91;100305.53;4883748;29;19932;-79
2024/01/16 12:49:05;;;;;;;;;;;;;;;3.50;69.83;100297.88;4884468;29;19931;-79
2024/01/16 12:51:31;;;;;;;;;;;;;;;4.20;67.45;100290.38;4880435;29;19923;-78
2024/01/16 12:54:12;;;;;;;;;;;;;;;4.43;64.09;100295.81;4882666;29;20007;-78
2024/01/16 12:56:38;;;;;;;;;;;;;;;3.45;68.85;100287.72;4881795;29;19935;-78
2024/01/16 12:59:08;;;;;;;;;;;;;;;2.06;72.90;100286.97;4883385;29;19928;-78
2024/01/16 13:01:34;;;;;;;;;;;;;;;1.62;75.93;100285.13;4882897;29;19924;-77
2024/01/16 13:04:03;;;;;;;;;;;;;;;1.43;76.21;100272.03;4882239;29;19931;-78
2024/01/16 13:06:28;;;;;;;;;;;;;;;1.03;78.68;100274.97;4883989;29;19934;-78
2024/01/16 13:09:05;;;;;;;;;;;;;;;0.76;80.66;100273.16;4885504;29;19923;-78
2024/01/16 13:11:30;;;;;;;;;;;;;;;0.57;81.27;100276.72;4885530;29;19924;-78
2024/01/16 13:14:06;;;;;;;;;;;;;;;0.71;82.20;100268.28;4886817;29;20445;-78
2024/01/16 13:16:31;;;;;;;;;;;;;;;1.01;81.87;100265.47;4901624;29;19978;-78
2024/01/16 13:19:04;;;;;;;;;;;;;;;1.37;81.95;100260.19;4903731;29;19923;-78
2024/01/16 13:21:29;;;;;;;;;;;;;;;2.81;76.36;100261.66;4918262;23;19931;-78
2024/01/16 13:23:54;;;;;;;;;;;;;;;4.67;66.34;100270.91;4919476;29;19924;-79
2024/01/16 13:26:19;;;;;;;;;;;;;;;5.68;60.47;100277.34;4900951;29;20379;-79
2024/01/16 13:28:47;;;;;;;;;;;;;;;5.12;63.72;100281.03;4901519;29;19945;-79
2024/01/16 13:31:12;;;;;;;;;;;;;;;5.55;59.37;100285.97;4901205;29;19975;-79
2024/01/16 13:33:38;;;;;;;;;;;;;;;5.87;58.00;100284.84;4899450;29;20336;-79
2024/01/16 13:36:04;;;;;;;;;;;;;;;4.33;62.88;100287.16;4900542;29;19947;-79
2024/01/16 13:38:29;;;;;;;;;;;;;;;5.41;61.41;100282.22;4892863;29;19927;-79
2024/01/16 13:40:55;;;;;;;;;;;;;;;5.22;60.39;100286.16;4900096;29;20300;-79
2024/01/16 13:43:21;;;;;;;;;;;;;;;6.01;57.63;100279.75;4899714;29;19930;-78
2024/01/16 13:45:49;;;;;;;;;;;;;;;6.46;56.03;100275.31;4919057;29;19956;-79
2024/01/16 13:48:14;;;;;;;;;;;;;;;5.17;59.92;100278.69;4921195;29;19916;-79
2024/01/16 13:50:40;;;;;;;;;;;;;;;4.73;63.99;100271.25;4920670;29;19930;-79
2024/01/16 13:53:05;;;;;;;;;;;;;;;5.15;58.33;100283.34;4919803;29;19923;-78
2024/01/16 13:55:31;;;;;;;;;;;;;;;3.98;62.69;100263.44;4901029;29;19931;-78
2024/01/16 13:57:58;;;;;;;;;;;;;;;3.04;67.28;100266.34;4900382;29;19927;-79
2024/01/16 14:00:23;;;;;;;;;;;;;;;2.02;71.42;100268.84;4899926;29;19929;-78
2024/01/16 14:02:49;;;;;;;;;;;;;;;2.40;71.59;100256.97;4899410;29;20329;-79
2024/01/16 14:05:17;;;;;;;;;;;;;;;2.98;69.47;100264.34;4899918;29;19919;-79
2024/01/16 14:07:43;;;;;;;;;;;;;;;2.87;69.79;100262.81;4900296;29;19924;-79
2024/01/16 14:10:12;;;;;;;;;;;;;;;3.12;69.50;100257.56;4899686;29;20010;-79
2024/01/16 14:12:37;;;;;;;;;;;;;;;3.07;68.83;100252.72;4916407;29;20328;-79
2024/01/16 14:15:06;;;;;;;;;;;;;;;3.32;66.63;100256.25;4920475;29;19928;-79
2024/01/16 14:17:32;;;;;;;;;;;;;;;3.10;68.81;100257.72;4919049;29;19928;-79
2024/01/16 14:19:57;;;;;;;;;;;;;;;2.67;68.00;100262.22;4910432;29;20304;-78
2024/01/16 14:22:22;;;;;;;;;;;;;;;2.17;71.45;100256.66;4900898;29;19923;-79
2024/01/16 14:24:50;;;;;;;;;;;;;;;1.92;71.58;100237.94;4900383;29;19924;-79
2024/01/16 14:27:16;;;;;;;;;;;;;;;0.98;75.88;100250.72;4899936;29;19934;-79
2024/01/16 14:29:41;;;;;;;;;;;;;;;0.90;78.71;100243.50;4902743;29;19924;-79
2024/01/16 14:32:06;;;;;;;;;;;;;;;0.65;79.41;100242.41;4901820;29;20369;-79
2024/01/16 14:34:32;;;;;;;;;;;;;;;0.67;80.55;100243.09;4901525;29;19948;-79
2024/01/16 14:36:57;;;;;;;;;;;;;;;1.13;80.33;100223.69;4904106;29;20356;-78
2024/01/16 14:39:24;;;;;;;;;;;;;;;1.52;78.27;100223.38;4920861;29;19978;-78
2024/01/16 14:41:49;;;;;;;;;;;;;;;1.37;77.75;100228.38;4920667;29;19938;-78
2024/01/16 14:44:15;;;;;;;;;;;;;;;1.08;78.89;100224.16;4919968;29;19958;-78
2024/01/16 14:46:40;;;;;;;;;;;;;;;0.74;80.61;100217.66;4918729;29;19926;-78
2024/01/16 14:49:05;;;;;;;;;;;;;;;0.57;82.06;100226.41;4911215;29;19923;-79
2024/01/16 14:51:31;;;;;;;;;;;;;;;0.38;83.07;100225.50;4898986;29;19978;-78
2024/01/16 14:53:56;;;;;;;;;;;;;;;0.28;83.88;100228.19;4900837;29;19943;-78
2024/01/16 14:56:21;;;;;;;;;;;;;;;0.29;84.51;100229.03;4898041;29;19924;-78
2024/01/16 14:58:46;;;;;;;;;;;;;;;0.21;84.73;100223.63;4898005;29;19923;-78
2024/01/16 15:01:11;;;;;;;;;;;;;;;0.20;85.15;100224.59;4898176;29;20415;-78
2024/01/16 15:03:37;;;;;;;;;;;;;;;0.40;84.68;100220.91;4896679;29;20403;-77
2024/01/16 15:06:02;;;;;;;;;;;;;;;0.24;84.02;100215.41;4897845;29;19924;-77
2024/01/16 15:08:30;;;;;;;;;;;;;;;-0.08;85.22;100206.84;4897971;29;20321;-77
2024/01/16 15:11:02;;;;;;;;;;;;;;;-0.34;86.91;100201.34;4897003;29;19924;-77
2024/01/16 15:13:27;;;;;;;;;;;;;;;-0.33;86.69;100210.94;4897085;29;20002;-77
2024/01/16 15:15:54;;;;;;;;;;;;;;;-0.42;87.44;100207.34;4897489;29;20449;-77
2024/01/16 15:18:19;;;;;;;;;;;;;;;-0.46;87.83;100212.09;4896935;29;20198;-77
2024/01/16 15:20:46;;;;;;;;;;;;;;;-0.43;87.80;100202.22;4897882;29;19923;-77
2024/01/16 15:23:11;;;;;;;;;;;;;;;-0.53;87.93;100208.31;4896789;29;20050;-77
2024/01/16 15:25:37;;;;;;;;;;;;;;;-0.65;89.31;100201.53;4889774;29;19971;-78
2024/01/16 15:28:03;;;;;;;;;;;;;;;-0.75;90.45;100209.47;4897923;29;19995;-77
2024/01/16 15:30:32;;;;;;;;;;;;;;;-0.67;89.71;100201.69;4880372;29;20407;-77
2024/01/16 15:32:57;;;;;;;;;;;;;;;-0.73;90.45;100212.81;4897197;29;20265;-77
2024/01/16 15:35:22;;;;;;;;;;;;;;;-0.74;91.17;100200.56;4898283;29;20416;-77
2024/01/16 15:37:48;;;;;;;;;;;;;;;-0.84;90.62;100199.72;4898533;29;20509;-77
2024/01/16 15:40:14;;;;;;;;;;;;;;;-0.92;91.64;100193.31;4898110;29;20358;-76
2024/01/16 15:42:40;;;;;;;;;;;;;;;-0.93;91.90;100201.41;4897604;29;20239;-76
2024/01/16 15:45:06;;;;;;;;;;;;;;;-0.97;91.54;100194.72;4897875;29;20284;-76
2024/01/16 15:47:31;;;;;;;;;;;;;;;-1.03;92.09;100203.19;4899512;29;20014;-74
2024/01/16 15:49:57;;;;;;;;;;;;;;;-1.05;92.44;100207.75;4900965;29;19974;-75
2024/01/16 15:52:22;;;;;;;;;;;;;;;-1.13;92.41;100211.94;4899980;29;19930;-76
2024/01/16 15:54:49;;;;;;;;;;;;;;;-1.16;93.26;100209.56;4899568;29;19923;-76
2024/01/16 15:57:14;;;;;;;;;;;;;;;-1.22;93.01;100215.38;4903729;29;19930;-75
2024/01/16 15:59:39;;;;;;;;;;;;;;;-1.29;94.21;100209.00;4906111;29;19923;-77
2024/01/16 16:02:05;;;;;;;;;;;;;;;-1.27;93.98;100205.25;4898217;29;19923;-76
2024/01/16 16:04:30;;;;;;;;;;;;;;;-1.32;94.55;100203.97;4901754;29;19927;-78
2024/01/16 16:06:55;;;;;;;;;;;;;;;-1.40;95.64;100209.94;4901104;29;19923;-76
2024/01/16 16:09:25;;;;;;;;;;;;;;;-1.46;96.88;100208.69;4902046;29;19924;-77
2024/01/16 16:11:53;;;;;;;;;;;;;;;-1.48;97.94;100210.63;4901861;29;19970;-78
2024/01/16 16:14:19;;;;;;;;;;;;;;;-1.58;98.82;100215.00;4902683;29;19949;-77
2024/01/16 16:16:45;;;;;;;;;;;;;;;-1.63;99.36;100219.88;4902702;29;19983;-78
2024/01/16 16:19:11;;;;;;;;;;;;;;;-1.66;99.86;100220.13;4885428;29;20014;-78
2024/01/16 16:21:36;;;;;;;;;;;;;;;-1.66;100.00;100218.31;4902201;29;19966;-78
2024/01/16 16:24:02;;;;;;;;;;;;;;;-1.73;100.00;100212.75;4900901;29;19923;-77
2024/01/16 16:26:33;;;;;;;;;;;;;;;-1.76;100.00;100215.63;4899907;29;20510;-78
2024/01/16 16:28:59;;;;;;;;;;;;;;;-1.77;100.00;100214.00;4901522;29;19934;-77
2024/01/16 16:31:25;;;;;;;;;;;;;;;-1.80;100.00;100208.13;4900784;29;20302;-78
2024/01/16 16:33:50;;;;;;;;;;;;;;;-1.85;100.00;100205.88;4899629;29;20017;-78
2024/01/16 16:36:15;;;;;;;;;;;;;;;-1.86;100.00;100212.97;4901096;29;19931;-77
2024/01/16 16:38:41;;;;;;;;;;;;;;;-1.89;100.00;100221.16;4900791;29;19930;-78
2024/01/16 16:41:06;;;;;;;;;;;;;;;-1.92;100.00;100225.84;4900670;29;20320;-77
2024/01/16 16:43:32;;;;;;;;;;;;;;;-1.92;100.00;100226.69;4883259;29;19929;-78
2024/01/16 16:45:58;;;;;;;;;;;;;;;-2.00;100.00;100222.06;4906996;23;19927;-77
2024/01/16 16:48:24;;;;;;;;;;;;;;;-2.00;100.00;100230.00;4882631;29;19958;-77
2024/01/16 16:50:49;;;;;;;;;;;;;;;-2.11;100.00;100230.03;4901087;29;20019;-77
2024/01/16 16:53:14;;;;;;;;;;;;;;;-2.07;100.00;100223.56;4900816;29;19947;-76
2024/01/16 16:55:40;;;;;;;;;;;;;;;-2.12;100.00;100228.41;4900995;29;20305;-77
2024/01/16 16:58:08;;;;;;;;;;;;;;;-2.16;100.00;100219.06;4902648;29;19927;-77
2024/01/16 17:00:35;;;;;;;;;;;;;;;-2.13;100.00;100222.28;4909009;23;19938;-77
2024/01/16 17:03:03;;;;;;;;;;;;;;;-2.15;100.00;100215.47;4901871;29;20014;-76
2024/01/16 17:05:28;;;;;;;;;;;;;;;-2.18;100.00;100216.53;4906757;29;19924;-77
2024/01/16 17:07:53;;;;;;;;;;;;;;;-2.22;100.00;100195.84;4921966;29;19922;-77
2024/01/16 17:10:18;;;;;;;;;;;;;;;-2.21;100.00;100211.56;4911560;29;19949;-77
2024/01/16 17:12:45;;;;;;;;;;;;;;;-2.22;100.00;100201.97;4909641;29;19991;-75
2024/01/16 17:15:10;;;;;;;;;;;;;;;-2.30;100.00;100201.78;4905674;29;19976;-77
2024/01/16 17:17:36;;;;;;;;;;;;;;;-2.30;100.00;100200.00;4899892;29;19962;-78
2024/01/16 17:20:01;;;;;;;;;;;;;;;-2.32;100.00;100199.28;4897517;29;20388;-76
2024/01/16 17:22:27;;;;;;;;;;;;;;;-2.34;100.00;100201.19;4899517;29;20021;-77
2024/01/16 17:24:58;;;;;;;;;;;;;;;-2.34;100.00;100195.94;4900286;29;19947;-77
2024/01/16 17:27:26;;;;;;;;;;;;;;;-2.34;100.00;100193.28;4899415;29;19924;-77
2024/01/16 17:29:52;;;;;;;;;;;;;;;-2.41;100.00;100192.13;4899032;29;19931;-77
2024/01/16 17:32:18;;;;;;;;;;;;;;;-2.44;100.00;100185.31;4899137;29;20288;-77
2024/01/16 17:34:43;;;;;;;;;;;;;;;-2.46;100.00;100187.25;4905154;29;19927;-77
2024/01/16 17:37:08;;;;;;;;;;;;;;;-2.46;100.00;100191.66;4903952;29;19922;-78
2024/01/16 17:39:33;;;;;;;;;;;;;;;-2.49;100.00;100181.41;4911233;29;20450;-78
2024/01/16 17:41:59;;;;;;;;;;;;;;;-2.51;100.00;100178.06;4910386;29;19923;-78
2024/01/16 17:44:24;;;;;;;;;;;;;;;-2.55;100.00;100166.91;4893187;29;20287;-77
2024/01/16 17:46:49;;;;;;;;;;;;;;;-2.54;100.00;100173.03;4897004;29;20010;-76
2024/01/16 17:49:15;;;;;;;;;;;;;;;-2.55;100.00;100166.09;4898908;29;19927;-77
2024/01/16 17:51:40;;;;;;;;;;;;;;;-2.57;100.00;100158.34;4898424;29;19923;-77
2024/01/16 17:54:05;;;;;;;;;;;;;;;-2.60;100.00;100159.41;4898931;29;19924;-77
2024/01/16 17:56:30;;;;;;;;;;;;;;;-2.66;100.00;100143.28;4898302;29;19931;-77
2024/01/16 17:58:57;;;;;;;;;;;;;;;-2.67;100.00;100158.28;4898065;29;20023;-77